Time;durP1;ratioP1;P1;durP2;ratioP2;P2;SDS_P1;SDS_P2;PMS_P1;PMS_P2;Temp;Humidity;BMP_temperature;BMP_pressure;BME280_temperature;BME280_humidity;BME280_pressure;Samples;Min_cycle;Max_cycle;Signal;HPM_P1;HPM_P2
2021/11/02 00:02:06;;;;;;;6.60;2.63;;;7.60;99.90;;;;;;5093307;27;20645;-53
2021/11/02 00:04:33;;;;;;;2.63;2.10;;;7.60;99.90;;;;;;5092469;28;20921;-53
2021/11/02 00:06:59;;;;;;;2.40;1.87;;;7.50;99.90;;;;;;5096413;28;20583;-54
2021/11/02 00:09:32;;;;;;;5.07;2.40;;;7.60;99.90;;;;;;5088796;28;20707;-50
2021/11/02 00:12:00;;;;;;;3.80;2.00;;;7.50;99.90;;;;;;5097297;28;20194;-57
2021/11/02 00:14:28;;;;;;;6.23;2.63;;;7.50;99.90;;;;;;5082406;28;20356;-57
2021/11/02 00:16:57;;;;;;;3.77;2.23;;;7.50;99.90;;;;;;5094938;28;20198;-56
2021/11/02 00:19:28;;;;;;;5.67;2.17;;;7.40;99.90;;;;;;5095191;27;20220;-53
2021/11/02 00:22:01;;;;;;;3.07;2.00;;;7.30;99.90;;;;;;5102832;28;20653;-56
2021/11/02 00:24:39;;;;;;;4.73;2.30;;;7.30;99.90;;;;;;5089812;28;20305;-54
2021/11/02 00:27:07;;;;;;;3.53;2.43;;;7.30;99.90;;;;;;5084116;28;20569;-56
2021/11/02 00:29:34;;;;;;;4.90;2.23;;;7.30;99.90;;;;;;5081172;28;20981;-57
2021/11/02 00:32:00;;;;;;;4.60;2.20;;;7.30;99.90;;;;;;5096090;28;20273;-58
2021/11/02 00:34:28;;;;;;;4.10;2.83;;;7.30;99.90;;;;;;5084847;28;20218;-57
2021/11/02 00:36:55;;;;;;;4.97;2.50;;;7.30;99.90;;;;;;5085639;28;20193;-53
2021/11/02 00:39:22;;;;;;;4.67;2.20;;;7.30;99.90;;;;;;5080699;28;20197;-53
2021/11/02 00:41:50;;;;;;;4.53;2.20;;;7.30;99.90;;;;;;5087610;28;20291;-58
2021/11/02 00:44:18;;;;;;;6.07;2.43;;;7.30;99.90;;;;;;5084182;28;20229;-57
2021/11/02 00:46:45;;;;;;;2.70;2.00;;;7.20;99.90;;;;;;5098708;28;20186;-53
2021/11/02 00:49:17;;;;;;;5.80;2.13;;;7.20;99.90;;;;;;5102900;28;20217;-56
2021/11/02 00:51:45;;;;;;;5.23;2.47;;;7.20;99.90;;;;;;5084904;28;20193;-56
2021/11/02 00:54:14;;;;;;;4.90;2.30;;;7.20;99.90;;;;;;5103066;28;20886;-57
2021/11/02 00:56:41;;;;;;;4.00;2.20;;;7.20;99.90;;;;;;5073245;28;20340;-56
2021/11/02 00:59:09;;;;;;;3.90;2.20;;;7.20;99.90;;;;;;5102221;27;20569;-55
2021/11/02 01:01:36;;;;;;;4.00;2.00;;;7.20;99.90;;;;;;5083165;28;20189;-57
2021/11/02 01:04:05;;;;;;;4.50;2.30;;;7.10;99.90;;;;;;5086211;28;20228;-54
2021/11/02 01:06:32;;;;;;;3.90;2.40;;;7.10;99.90;;;;;;5103435;28;20288;-54
2021/11/02 01:09:00;;;;;;;4.77;2.37;;;7.10;99.90;;;;;;5105624;28;20213;-56
2021/11/02 01:11:27;;;;;;;5.20;2.50;;;7.10;99.90;;;;;;5086299;28;20197;-53
2021/11/02 01:13:55;;;;;;;2.77;2.13;;;7.00;99.90;;;;;;5097559;27;20221;-57
2021/11/02 01:16:24;;;;;;;3.07;2.33;;;7.00;99.90;;;;;;5091799;28;20202;-57
2021/11/02 01:18:51;;;;;;;6.13;2.50;;;7.00;99.90;;;;;;5105094;28;20205;-55
2021/11/02 01:21:19;;;;;;;5.13;2.10;;;7.00;99.90;;;;;;5084356;27;20219;-58
2021/11/02 01:23:46;;;;;;;4.40;2.17;;;7.00;99.90;;;;;;5084764;28;20205;-58
2021/11/02 01:26:14;;;;;;;9.30;2.40;;;7.00;99.90;;;;;;5102596;28;20181;-59
2021/11/02 01:28:41;;;;;;;2.73;2.10;;;7.00;99.90;;;;;;5070956;28;20217;-58
2021/11/02 01:31:08;;;;;;;9.37;2.57;;;6.90;99.90;;;;;;5090227;27;20212;-62
2021/11/02 01:33:36;;;;;;;3.20;2.03;;;6.90;99.90;;;;;;5079111;28;20203;-54
2021/11/02 01:36:04;;;;;;;6.30;2.13;;;6.90;99.90;;;;;;5102507;28;20213;-50
2021/11/02 01:38:31;;;;;;;6.47;2.33;;;6.90;99.90;;;;;;5105975;28;20221;-49
2021/11/02 01:41:06;;;;;;;4.53;2.13;;;6.90;99.90;;;;;;5085850;28;20207;-58
2021/11/02 01:43:35;;;;;;;5.07;2.10;;;6.90;99.90;;;;;;5073930;28;20225;-57
2021/11/02 01:46:02;;;;;;;3.27;2.17;;;6.90;99.90;;;;;;5074516;28;20537;-57
2021/11/02 01:48:34;;;;;;;5.50;2.17;;;6.90;99.90;;;;;;5078061;28;20216;-59
2021/11/02 01:51:01;;;;;;;5.87;2.30;;;6.90;99.90;;;;;;5094482;27;20236;-57
2021/11/02 01:53:28;;;;;;;6.83;2.33;;;6.80;99.90;;;;;;5084774;28;20866;-62
2021/11/02 01:56:01;;;;;;;5.93;1.90;;;6.80;99.90;;;;;;5081765;28;20197;-62
2021/11/02 01:58:29;;;;;;;3.87;2.33;;;6.80;99.90;;;;;;5081640;28;20272;-63
2021/11/02 02:01:00;;;;;;;2.67;2.13;;;6.80;99.90;;;;;;5089870;27;20201;-63
2021/11/02 02:03:37;;;;;;;8.37;2.70;;;6.80;99.90;;;;;;5070110;27;20260;-61
2021/11/02 02:06:12;;;;;;;8.20;2.30;;;6.80;99.90;;;;;;5069023;28;20194;-63
2021/11/02 02:08:53;;;;;;;8.63;2.47;;;6.70;99.90;;;;;;5086464;28;20578;-62
2021/11/02 02:11:37;;;;;;;3.87;2.07;;;6.70;99.90;;;;;;5092435;27;20205;-61
2021/11/02 02:14:13;;;;;;;5.13;2.20;;;6.70;99.90;;;;;;5081541;28;20308;-63
2021/11/02 02:16:45;;;;;;;3.23;2.27;;;6.70;99.90;;;;;;5100119;27;20205;-63
2021/11/02 02:19:45;;;;;;;4.23;2.17;;;6.70;99.90;;;;;;5067621;28;20194;-61
2021/11/02 02:22:27;;;;;;;3.37;2.00;;;6.70;99.90;;;;;;5081079;28;20202;-62
2021/11/02 02:25:11;;;;;;;6.40;2.70;;;6.70;99.90;;;;;;5100215;28;20243;-60
2021/11/02 02:27:49;;;;;;;5.73;2.63;;;6.70;99.90;;;;;;5086883;28;20244;-61
2021/11/02 02:30:19;;;;;;;4.13;2.37;;;6.70;99.90;;;;;;5071248;28;20217;-54
2021/11/02 02:32:49;;;;;;;5.90;2.60;;;6.70;99.90;;;;;;5082741;28;20205;-52
2021/11/02 02:35:18;;;;;;;4.90;3.00;;;6.70;99.90;;;;;;5088140;28;20225;-58
2021/11/02 02:37:48;;;;;;;4.80;2.60;;;6.70;99.90;;;;;;5080084;28;20237;-56
2021/11/02 02:40:16;;;;;;;7.30;2.60;;;6.70;99.90;;;;;;5078748;28;20269;-57
2021/11/02 02:42:46;;;;;;;4.80;2.60;;;6.70;99.90;;;;;;5081874;28;20211;-56
2021/11/02 02:45:18;;;;;;;5.23;2.37;;;6.70;99.90;;;;;;5087350;28;20277;-56
2021/11/02 02:47:47;;;;;;;5.07;2.60;;;6.70;99.90;;;;;;5082314;28;20201;-58
2021/11/02 02:50:15;;;;;;;5.40;2.83;;;6.70;99.90;;;;;;5084161;27;20217;-60
2021/11/02 02:52:44;;;;;;;4.97;2.63;;;6.70;99.90;;;;;;5084621;28;20253;-56
2021/11/02 02:55:14;;;;;;;6.67;2.13;;;6.70;99.90;;;;;;5098077;28;20648;-56
2021/11/02 02:57:43;;;;;;;3.90;2.23;;;6.70;99.90;;;;;;5085243;27;20668;-54
2021/11/02 03:00:14;;;;;;;6.23;2.60;;;6.60;99.90;;;;;;5070700;28;20243;-55
2021/11/02 03:02:45;;;;;;;5.03;2.60;;;6.60;99.90;;;;;;5098539;28;20216;-57
2021/11/02 03:05:15;;;;;;;5.60;3.47;;;6.60;99.90;;;;;;5072779;28;20799;-56
2021/11/02 03:07:43;;;;;;;6.40;2.70;;;6.60;99.90;;;;;;5086912;28;20201;-54
2021/11/02 03:10:11;;;;;;;4.07;2.40;;;6.60;99.90;;;;;;5083721;28;20216;-57
2021/11/02 03:12:46;;;;;;;6.47;2.37;;;6.60;99.90;;;;;;5085471;28;20197;-56
2021/11/02 03:15:39;;;;;;;4.40;2.47;;;6.60;99.90;;;;;;5086782;27;20309;-57
2021/11/02 03:18:21;;;;;;;5.10;3.00;;;6.60;99.90;;;;;;5077989;28;20665;-59
2021/11/02 03:48:53;;;;;;;6.70;2.83;;;6.40;99.90;;;;;;5085499;27;20225;-58
2021/11/02 03:51:46;;;;;;;4.13;2.57;;;6.30;99.90;;;;;;5094773;28;20212;-55
2021/11/02 03:57:10;;;;;;;7.30;3.00;;;6.20;99.90;;;;;;5097245;28;20205;-55
2021/11/02 04:00:10;;;;;;;5.60;2.50;;;6.20;99.90;;;;;;5075910;28;20182;-57
2021/11/02 04:28:21;;;;;;;6.80;3.20;;;6.00;99.90;;;;;;5074512;28;20216;-61
2021/11/02 04:42:47;;;;;;;4.30;2.70;;;5.90;99.90;;;;;;5015170;28;20287;-47
2021/11/02 05:46:50;;;;;;;5.00;3.27;;;5.50;99.90;;;;;;5062579;28;20205;-59
2021/11/02 05:49:26;;;;;;;7.90;2.87;;;5.50;99.90;;;;;;5049721;28;20294;-55
2021/11/02 05:52:20;;;;;;;6.13;3.17;;;5.50;99.90;;;;;;5058871;28;20297;-53
2021/11/02 05:55:10;;;;;;;6.23;3.20;;;5.50;99.90;;;;;;5044402;28;20221;-54
2021/11/02 05:57:43;;;;;;;8.00;3.00;;;5.50;99.90;;;;;;5057636;28;20195;-51
2021/11/02 06:00:23;;;;;;;5.70;3.20;;;5.50;99.90;;;;;;5061950;28;20285;-58
2021/11/02 06:05:46;;;;;;;5.87;3.30;;;5.60;99.90;;;;;;5043519;28;20325;-52
2021/11/02 06:23:20;;;;;;;3.73;3.03;;;5.60;99.90;;;;;;5064620;28;20522;-56
2021/11/02 06:28:36;;;;;;;9.97;3.80;;;5.80;99.90;;;;;;5036614;28;20694;-44
2021/11/02 06:31:08;;;;;;;6.10;3.17;;;5.90;99.90;;;;;;5066644;28;20199;-48
2021/11/02 06:33:43;;;;;;;6.97;4.07;;;5.90;99.90;;;;;;5058185;28;20260;-50
2021/11/02 06:39:15;;;;;;;4.97;3.33;;;6.00;99.90;;;;;;5045197;28;20202;-51
2021/11/02 06:45:12;;;;;;;6.73;4.23;;;6.10;99.90;;;;;;5055941;28;20223;-49
2021/11/02 06:50:47;;;;;;;14.33;7.97;;;6.10;99.90;;;;;;5052975;28;20196;-53
2021/11/02 06:53:44;;;;;;;4.90;3.87;;;6.20;99.90;;;;;;5054339;28;20681;-49
2021/11/02 06:59:42;;;;;;;12.93;4.47;;;6.20;99.90;;;;;;5055849;28;20245;-51
2021/11/02 07:19:27;;;;;;;8.73;4.00;;;6.40;99.90;;;;;;5044512;28;20210;-51
2021/11/02 07:22:05;;;;;;;7.07;4.27;;;6.50;99.90;;;;;;5058908;28;20186;-54
2021/11/02 07:24:36;;;;;;;7.73;4.20;;;6.50;99.90;;;;;;5053188;28;20222;-49
2021/11/02 07:27:18;;;;;;;12.23;4.67;;;6.60;99.90;;;;;;5050049;28;20205;-49
2021/11/02 07:30:23;;;;;;;6.37;4.10;;;6.60;99.90;;;;;;5051989;28;20217;-48
2021/11/02 08:45:55;;;;;;;13.50;6.50;;;7.40;99.90;;;;;;5050350;28;20214;-47
2021/11/02 08:48:25;;;;;;;14.70;6.57;;;7.50;99.90;;;;;;5050265;28;20225;-52
2021/11/02 08:50:53;;;;;;;11.83;6.47;;;7.50;99.90;;;;;;5060251;28;20666;-51
2021/11/02 08:53:24;;;;;;;13.67;6.97;;;7.50;99.90;;;;;;5060694;28;20595;-51
2021/11/02 08:55:51;;;;;;;13.83;7.13;;;7.60;99.90;;;;;;5052793;28;20201;-50
2021/11/02 08:58:20;;;;;;;15.70;6.80;;;7.60;99.90;;;;;;5045521;28;20248;-50
2021/11/02 09:00:46;;;;;;;14.63;6.53;;;7.70;99.90;;;;;;5051279;28;20722;-52
2021/11/02 09:03:19;;;;;;;13.33;6.77;;;7.80;99.90;;;;;;5054919;28;20215;-52
2021/11/02 09:05:49;;;;;;;15.13;7.13;;;7.90;99.90;;;;;;5061493;28;20226;-51
2021/11/02 09:08:17;;;;;;;11.10;6.87;;;7.90;99.90;;;;;;5062207;28;20852;-52
2021/11/02 09:10:47;;;;;;;12.80;7.40;;;8.00;99.90;;;;;;5061658;28;20202;-49
2021/11/02 09:13:15;;;;;;;10.77;7.20;;;8.20;99.90;;;;;;5058803;28;20210;-50
2021/11/02 09:15:42;;;;;;;11.53;6.40;;;8.20;99.90;;;;;;5049786;28;20211;-52
2021/11/02 09:18:11;;;;;;;10.30;6.47;;;8.30;99.90;;;;;;5050366;28;20289;-52
2021/11/02 09:20:39;;;;;;;12.70;7.33;;;8.40;99.90;;;;;;5064543;28;20215;-49
2021/11/02 09:23:06;;;;;;;12.60;5.73;;;8.50;99.90;;;;;;5060164;28;20206;-50
2021/11/02 09:25:34;;;;;;;15.03;6.30;;;8.60;99.90;;;;;;5062984;28;20222;-52
2021/11/02 09:28:02;;;;;;;10.10;6.03;;;8.60;99.90;;;;;;5055594;28;20198;-46
2021/11/02 09:30:31;;;;;;;14.27;6.53;;;8.70;99.90;;;;;;5045166;28;20217;-51
2021/11/02 09:32:58;;;;;;;11.10;5.90;;;8.80;99.90;;;;;;5058606;28;20218;-50
2021/11/02 09:35:27;;;;;;;10.80;5.80;;;8.90;99.90;;;;;;5065720;28;20218;-51
2021/11/02 09:38:04;;;;;;;17.73;7.07;;;8.90;99.90;;;;;;5058011;28;20217;-49
2021/11/02 09:44:29;;;;;;;9.57;5.50;;;9.10;99.90;;;;;;5057678;28;20235;-51
2021/11/02 09:47:23;;;;;;;9.90;5.10;;;9.20;99.90;;;;;;5044147;28;20209;-56
2021/11/02 09:50:28;;;;;;;8.47;4.80;;;9.40;99.90;;;;;;5051474;28;20203;-55
2021/11/02 09:53:44;;;;;;;9.60;4.40;;;9.50;99.90;;;;;;5055625;28;20202;-52
2021/11/02 09:56:32;;;;;;;6.83;4.10;;;9.60;99.90;;;;;;5049773;28;20218;-55
2021/11/02 09:59:29;;;;;;;8.53;4.53;;;9.70;99.90;;;;;;5053600;28;20214;-54
2021/11/02 10:02:17;;;;;;;6.37;3.97;;;9.80;99.90;;;;;;5041458;28;20202;-53
2021/11/02 10:05:09;;;;;;;9.20;4.00;;;9.80;99.90;;;;;;5059585;28;20305;-56
2021/11/02 10:07:58;;;;;;;8.57;4.10;;;9.80;99.90;;;;;;5059187;28;20624;-52
2021/11/02 10:10:34;;;;;;;5.23;3.73;;;9.80;99.90;;;;;;5064226;28;20202;-54
2021/11/02 10:13:07;;;;;;;7.13;3.80;;;9.90;99.90;;;;;;5056643;28;20198;-57
2021/11/02 10:15:53;;;;;;;9.10;4.40;;;9.90;99.90;;;;;;5057483;28;20221;-54
2021/11/02 10:18:45;;;;;;;5.37;3.80;;;10.00;99.90;;;;;;5050295;28;20652;-53
2021/11/02 10:21:28;;;;;;;6.73;4.40;;;10.00;99.90;;;;;;5059930;28;20300;-51
2021/11/02 10:24:33;;;;;;;8.20;4.50;;;10.10;99.90;;;;;;5055241;28;20230;-52
2021/11/02 10:27:16;;;;;;;5.37;4.10;;;10.20;99.90;;;;;;5052614;28;20203;-54
2021/11/02 10:30:21;;;;;;;9.07;4.90;;;10.20;99.90;;;;;;5048838;28;20195;-51
2021/11/02 10:32:50;;;;;;;5.67;4.30;;;10.30;99.90;;;;;;5045480;28;20297;-52
2021/11/02 10:35:30;;;;;;;6.33;3.60;;;10.40;99.90;;;;;;5050884;28;20242;-52
2021/11/02 10:38:02;;;;;;;9.90;3.70;;;10.40;99.90;;;;;;5058246;28;20217;-52
2021/11/02 10:40:39;;;;;;;8.40;3.50;;;10.50;99.90;;;;;;5057549;28;20269;-52
2021/11/02 10:43:33;;;;;;;5.70;4.00;;;10.50;99.90;;;;;;5060709;28;20332;-53
2021/11/02 10:46:04;;;;;;;5.40;4.70;;;10.60;99.90;;;;;;5045138;28;20230;-50
2021/11/02 10:48:41;;;;;;;6.33;3.87;;;10.60;99.90;;;;;;5048438;28;20199;-49
2021/11/02 10:51:10;;;;;;;6.40;3.97;;;10.60;99.90;;;;;;5052508;28;20609;-54
2021/11/02 10:53:39;;;;;;;8.43;4.07;;;10.60;99.90;;;;;;5061405;28;20574;-54
2021/11/02 10:56:11;;;;;;;5.07;3.20;;;10.70;99.90;;;;;;5056659;28;20198;-54
2021/11/02 10:58:43;;;;;;;6.37;3.33;;;10.70;99.90;;;;;;5062924;28;20197;-53
2021/11/02 11:01:12;;;;;;;8.30;4.50;;;10.80;99.90;;;;;;5057945;28;20206;-48
2021/11/02 11:03:40;;;;;;;7.17;4.50;;;10.80;99.90;;;;;;5047949;28;20206;-53
2021/11/02 11:06:10;;;;;;;8.47;3.87;;;10.90;99.90;;;;;;5062303;28;20213;-53
2021/11/02 11:08:38;;;;;;;5.37;3.70;;;10.90;99.90;;;;;;5062252;28;20233;-48
2021/11/02 11:11:06;;;;;;;5.73;4.13;;;10.80;99.90;;;;;;5063788;28;20199;-47
2021/11/02 11:13:35;;;;;;;9.37;3.97;;;10.90;99.90;;;;;;5062762;28;20202;-50
2021/11/02 11:16:07;;;;;;;4.90;3.53;;;10.90;99.90;;;;;;5057910;28;20195;-49
2021/11/02 11:18:45;;;;;;;9.33;4.13;;;11.00;99.90;;;;;;5044332;28;20222;-47
2021/11/02 11:21:15;;;;;;;8.60;4.13;;;11.00;99.90;;;;;;5055971;28;20205;-51
2021/11/02 11:23:43;;;;;;;8.67;4.27;;;11.00;99.90;;;;;;5057886;28;20336;-48
2021/11/02 11:26:11;;;;;;;7.73;5.03;;;11.10;99.90;;;;;;5060180;28;20223;-49
2021/11/02 11:28:40;;;;;;;5.20;4.60;;;11.10;99.90;;;;;;5079704;28;20939;-49
2021/11/02 11:31:07;;;;;;;6.37;4.80;;;11.10;99.90;;;;;;5067044;28;20209;-51
2021/11/02 11:33:34;;;;;;;8.00;4.73;;;11.20;99.90;;;;;;5042719;28;20199;-53
2021/11/02 11:36:03;;;;;;;7.67;5.00;;;11.20;99.90;;;;;;5061082;28;20198;-51
2021/11/02 11:38:37;;;;;;;9.37;5.40;;;11.30;99.90;;;;;;5051205;28;20218;-46
2021/11/02 11:41:05;;;;;;;7.67;5.37;;;11.40;99.90;;;;;;5059724;28;20286;-52
2021/11/02 11:43:33;;;;;;;8.00;5.40;;;11.40;99.90;;;;;;5059063;28;20199;-51
2021/11/02 11:46:01;;;;;;;9.23;5.60;;;11.50;99.90;;;;;;5061466;28;20771;-52
2021/11/02 11:48:28;;;;;;;8.87;5.30;;;11.50;99.90;;;;;;5059753;28;20939;-51
2021/11/02 11:50:57;;;;;;;5.63;5.07;;;11.50;99.90;;;;;;5046923;28;20561;-51
2021/11/02 11:53:25;;;;;;;8.03;5.00;;;11.60;99.90;;;;;;5054377;28;20897;-49
2021/11/02 11:56:07;;;;;;;8.53;6.40;;;11.60;99.90;;;;;;5062822;28;20202;-51
2021/11/02 11:58:35;;;;;;;8.70;5.90;;;11.60;99.90;;;;;;5055970;28;20270;-52
2021/11/02 12:01:11;;;;;;;10.73;5.43;;;11.60;99.90;;;;;;5058257;28;20218;-53
2021/11/02 12:03:47;;;;;;;6.30;5.20;;;11.60;99.90;;;;;;5057579;28;20198;-51
2021/11/02 12:06:20;;;;;;;8.77;6.07;;;11.70;99.90;;;;;;5044397;28;20582;-52
2021/11/02 12:08:53;;;;;;;10.27;5.77;;;11.70;99.90;;;;;;5060123;28;20203;-49
2021/11/02 12:11:24;;;;;;;10.13;5.47;;;11.80;99.90;;;;;;5057139;28;20191;-49
2021/11/02 12:13:58;;;;;;;10.47;5.43;;;11.80;99.90;;;;;;5055986;28;20588;-50
2021/11/02 12:16:34;;;;;;;6.47;5.30;;;11.80;99.90;;;;;;5052531;28;20194;-48
2021/11/02 12:19:04;;;;;;;14.13;6.03;;;11.70;99.90;;;;;;5056649;28;20190;-52
2021/11/02 12:21:34;;;;;;;6.80;5.33;;;11.70;99.90;;;;;;5044986;28;20203;-51
2021/11/02 12:24:05;;;;;;;9.63;5.47;;;11.80;99.90;;;;;;5056859;28;20229;-54
2021/11/02 12:26:43;;;;;;;10.73;5.80;;;11.80;99.90;;;;;;5054041;28;20308;-49
2021/11/02 12:29:16;;;;;;;6.43;4.67;;;11.80;99.90;;;;;;5053917;28;20178;-50
2021/11/02 12:31:45;;;;;;;5.47;4.63;;;11.80;99.90;;;;;;5061508;28;20199;-54
2021/11/02 12:34:13;;;;;;;5.83;4.67;;;11.80;99.90;;;;;;5059634;28;20237;-50
2021/11/02 12:36:46;;;;;;;7.47;5.23;;;11.80;99.90;;;;;;5047238;28;20213;-50
2021/11/02 12:39:13;;;;;;;6.03;5.03;;;11.80;99.90;;;;;;5051058;28;20202;-48
2021/11/02 12:41:51;;;;;;;9.73;4.90;;;11.90;99.90;;;;;;5064234;28;20215;-48
2021/11/02 12:44:24;;;;;;;6.57;4.83;;;12.00;99.90;;;;;;5062622;28;20233;-52
2021/11/02 12:46:52;;;;;;;7.53;4.90;;;12.00;99.90;;;;;;5059027;28;20256;-52
2021/11/02 12:49:25;;;;;;;8.87;4.60;;;12.10;99.90;;;;;;5075284;28;20714;-47
2021/11/02 12:51:57;;;;;;;9.07;4.97;;;12.20;99.90;;;;;;5051907;28;20203;-52
2021/11/02 12:54:27;;;;;;;9.53;4.87;;;12.20;99.90;;;;;;5056920;28;20311;-48
2021/11/02 12:57:01;;;;;;;6.10;3.87;;;12.30;99.90;;;;;;5063392;28;20190;-50
2021/11/02 12:59:35;;;;;;;9.40;4.20;;;12.40;99.90;;;;;;5062598;28;20706;-47
2021/11/02 13:02:16;;;;;;;6.60;4.33;;;12.40;99.90;;;;;;5052614;28;20209;-53
2021/11/02 13:04:45;;;;;;;8.60;4.37;;;12.30;99.90;;;;;;5069056;28;20221;-51
2021/11/02 13:07:13;;;;;;;4.60;4.13;;;12.20;99.90;;;;;;5047071;28;20212;-52
2021/11/02 13:09:40;;;;;;;6.27;4.13;;;12.20;99.90;;;;;;5063397;28;20198;-52
2021/11/02 13:12:11;;;;;;;8.17;4.20;;;12.20;99.90;;;;;;5056442;28;20217;-47
2021/11/02 13:14:39;;;;;;;9.27;4.50;;;12.10;99.90;;;;;;5073711;28;20253;-53
2021/11/02 13:17:11;;;;;;;9.17;4.50;;;12.10;99.90;;;;;;5057622;28;20194;-49
2021/11/02 13:19:40;;;;;;;9.20;5.10;;;12.10;99.90;;;;;;5061915;28;20203;-47
2021/11/02 13:22:11;;;;;;;5.90;4.30;;;12.10;99.90;;;;;;5046519;28;20202;-49
2021/11/02 13:24:38;;;;;;;4.97;4.10;;;12.20;99.90;;;;;;5057433;28;20564;-48
2021/11/02 13:27:09;;;;;;;6.43;3.40;;;12.20;99.90;;;;;;5055600;28;20217;-49
2021/11/02 13:29:36;;;;;;;6.50;2.83;;;12.20;99.90;;;;;;5062790;28;20191;-48
2021/11/02 13:32:05;;;;;;;4.20;3.00;;;12.30;99.90;;;;;;5057090;28;20222;-50
2021/11/02 13:34:38;;;;;;;4.30;3.20;;;12.30;99.90;;;;;;5068563;28;20223;-49
2021/11/02 13:37:07;;;;;;;3.60;2.80;;;12.50;99.90;;;;;;5045436;28;20527;-52
2021/11/02 13:39:52;;;;;;;6.07;3.10;;;12.40;99.90;;;;;;5068571;28;20201;-48
2021/11/02 13:42:20;;;;;;;7.00;3.70;;;12.40;99.90;;;;;;5058818;28;20439;-46
2021/11/02 13:44:52;;;;;;;5.40;3.07;;;12.40;99.90;;;;;;5066168;28;21115;-53
2021/11/02 13:47:20;;;;;;;6.87;3.50;;;12.30;99.90;;;;;;5059603;28;21716;-48
2021/11/02 13:49:47;;;;;;;7.13;3.27;;;12.30;99.90;;;;;;5066133;28;20675;-51
2021/11/02 13:52:14;;;;;;;4.40;3.20;;;12.30;99.90;;;;;;5040370;28;20413;-47
2021/11/02 13:54:42;;;;;;;5.57;3.40;;;12.40;99.90;;;;;;5069179;28;20234;-48
2021/11/02 13:57:09;;;;;;;6.70;3.37;;;12.30;99.90;;;;;;5056468;28;20206;-52
2021/11/02 13:59:37;;;;;;;4.10;2.93;;;12.30;99.90;;;;;;5060562;28;20207;-50
2021/11/02 14:02:03;;;;;;;8.67;3.20;;;12.30;99.90;;;;;;5059322;28;20200;-49
2021/11/02 14:04:35;;;;;;;6.00;3.73;;;12.30;99.90;;;;;;5056777;28;20226;-49
2021/11/02 14:07:07;;;;;;;3.93;3.50;;;12.40;99.90;;;;;;5052113;28;20221;-50
2021/11/02 14:09:36;;;;;;;8.10;3.80;;;12.50;99.90;;;;;;5065798;28;20199;-46
2021/11/02 14:12:19;;;;;;;6.90;3.60;;;12.50;99.90;;;;;;5038451;28;21202;-50
2021/11/02 14:14:47;;;;;;;6.70;3.83;;;13.10;99.90;;;;;;5060387;28;20249;-50
2021/11/02 14:17:20;;;;;;;4.20;3.00;;;13.30;99.90;;;;;;5051889;28;20206;-48
2021/11/02 14:19:48;;;;;;;4.73;3.37;;;13.50;99.90;;;;;;5058856;28;20214;-45
2021/11/02 14:22:35;;;;;;;3.73;3.33;;;13.80;99.90;;;;;;5060139;28;20195;-47
2021/11/02 14:25:11;;;;;;;4.50;3.20;;;14.10;99.90;;;;;;5046313;28;20226;-46
2021/11/02 14:27:45;;;;;;;4.67;3.10;;;14.40;99.90;;;;;;5059608;28;20663;-45
2021/11/02 14:30:23;;;;;;;5.80;2.90;;;14.40;99.90;;;;;;5061712;28;20194;-47
2021/11/02 14:32:54;;;;;;;5.27;2.63;;;14.20;99.90;;;;;;5050041;28;20206;-46
2021/11/02 14:35:48;;;;;;;4.50;2.70;;;13.90;99.90;;;;;;5056725;28;20343;-44
2021/11/02 14:38:16;;;;;;;4.73;2.87;;;13.70;99.90;;;;;;5047754;28;22193;-46
2021/11/02 14:40:45;;;;;;;7.37;3.20;;;13.50;99.90;;;;;;5059393;28;20195;-46
2021/11/02 14:43:27;;;;;;;4.20;2.63;;;13.30;99.90;;;;;;5061278;28;20277;-43
2021/11/02 14:45:57;;;;;;;3.90;2.50;;;13.20;99.90;;;;;;5057269;28;20215;-43
2021/11/02 14:48:49;;;;;;;6.80;2.90;;;13.10;99.90;;;;;;5057927;28;20724;-45
2021/11/02 14:51:25;;;;;;;5.10;2.87;;;13.00;99.90;;;;;;5056408;28;20353;-48
2021/11/02 14:53:54;;;;;;;8.73;3.80;;;12.90;99.90;;;;;;5047517;28;20225;-43
2021/11/02 14:56:30;;;;;;;4.97;3.50;;;12.80;99.90;;;;;;5061444;28;20186;-44
2021/11/02 14:58:58;;;;;;;5.43;2.87;;;12.80;99.90;;;;;;5056149;28;20260;-46
2021/11/02 15:01:43;;;;;;;2.70;2.37;;;12.70;99.90;;;;;;5058611;28;20195;-43
2021/11/02 15:04:14;;;;;;;9.27;5.17;;;12.70;99.90;;;;;;5054635;28;20233;-45
2021/11/02 15:06:43;;;;;;;3.83;2.33;;;12.70;99.90;;;;;;5064041;28;20280;-44
2021/11/02 15:09:12;;;;;;;1.70;1.30;;;12.60;99.90;;;;;;5041130;28;20215;-47
2021/11/02 15:11:40;;;;;;;4.07;2.40;;;12.50;99.90;;;;;;5059960;28;20202;-44
2021/11/02 15:14:11;;;;;;;3.63;1.93;;;12.40;99.90;;;;;;5059041;28;20584;-46
2021/11/02 15:16:44;;;;;;;2.07;1.70;;;12.20;99.90;;;;;;5055218;28;20205;-47
2021/11/02 15:19:11;;;;;;;4.03;1.60;;;12.10;99.90;;;;;;5057527;28;20249;-43
2021/11/02 15:21:40;;;;;;;3.60;1.57;;;12.10;99.90;;;;;;5058987;28;20202;-44
2021/11/02 15:24:17;;;;;;;3.53;1.90;;;12.00;99.90;;;;;;5057223;28;20226;-44
2021/11/02 15:26:47;;;;;;;2.10;1.67;;;11.90;99.90;;;;;;5046882;28;20877;-45
2021/11/02 15:29:14;;;;;;;3.27;1.67;;;11.80;99.90;;;;;;5047363;28;20214;-45
2021/11/02 15:31:53;;;;;;;2.50;1.50;;;11.70;99.90;;;;;;5046650;28;20202;-44
2021/11/02 15:34:19;;;;;;;4.70;1.70;;;11.60;99.90;;;;;;5051420;28;20245;-46
2021/11/02 15:36:46;;;;;;;4.10;1.73;;;11.60;99.90;;;;;;5046201;28;20199;-45
2021/11/02 15:39:13;;;;;;;3.53;1.33;;;11.50;99.90;;;;;;5051778;28;20207;-47
2021/11/02 15:41:40;;;;;;;2.43;1.50;;;11.50;99.90;;;;;;5042829;28;20701;-47
2021/11/02 15:44:09;;;;;;;2.30;1.30;;;11.50;99.90;;;;;;5053561;28;20232;-48
2021/11/02 15:46:38;;;;;;;3.27;1.80;;;11.30;99.90;;;;;;5052158;28;22792;-44
2021/11/02 15:49:07;;;;;;;4.47;1.50;;;11.20;99.90;;;;;;5059141;28;20289;-45
2021/11/02 15:51:36;;;;;;;4.00;1.57;;;11.20;99.90;;;;;;5044337;28;20886;-46
2021/11/02 15:54:11;;;;;;;2.00;1.40;;;11.10;99.90;;;;;;5056587;28;20218;-45
2021/11/02 15:56:39;;;;;;;4.87;2.03;;;11.00;99.90;;;;;;5044534;28;20926;-45
2021/11/02 15:59:07;;;;;;;3.77;1.90;;;10.80;99.90;;;;;;5056046;28;20252;-44
2021/11/02 16:01:40;;;;;;;8.70;1.83;;;10.80;99.90;;;;;;5058171;28;20183;-47
2021/11/02 16:04:20;;;;;;;4.00;1.80;;;10.70;99.90;;;;;;5052835;28;20686;-43
2021/11/02 16:07:01;;;;;;;3.27;2.20;;;10.60;99.90;;;;;;5045773;28;21015;-44
2021/11/02 16:09:51;;;;;;;6.93;2.37;;;10.50;99.90;;;;;;5051522;28;20195;-44
2021/11/02 16:12:22;;;;;;;7.30;2.30;;;10.40;99.90;;;;;;5049704;28;20221;-46
2021/11/02 16:14:54;;;;;;;5.67;1.90;;;10.30;99.90;;;;;;5058982;28;20211;-44
2021/11/02 16:17:21;;;;;;;6.43;2.47;;;10.20;99.90;;;;;;5061786;28;20848;-44
2021/11/02 16:19:51;;;;;;;6.13;1.87;;;10.10;99.90;;;;;;5055706;28;20217;-44
2021/11/02 16:22:18;;;;;;;8.13;3.00;;;10.10;99.90;;;;;;5055443;28;20206;-46
2021/11/02 16:24:45;;;;;;;7.23;3.43;;;10.00;99.90;;;;;;5053613;28;21429;-42
2021/11/02 16:27:17;;;;;;;8.67;5.27;;;9.80;99.90;;;;;;5048434;28;20225;-45
2021/11/02 16:29:44;;;;;;;8.73;4.83;;;9.70;99.90;;;;;;5058244;28;20194;-47
2021/11/02 16:32:23;;;;;;;5.43;4.40;;;9.60;99.90;;;;;;5062254;28;20207;-43
2021/11/02 16:34:51;;;;;;;8.33;3.40;;;9.50;99.90;;;;;;5059875;28;20250;-43
2021/11/02 16:37:36;;;;;;;5.87;2.80;;;9.40;99.90;;;;;;5059830;28;20194;-43
2021/11/02 16:40:24;;;;;;;4.70;2.90;;;9.40;99.90;;;;;;5053282;28;20198;-42
2021/11/02 16:42:53;;;;;;;4.17;2.60;;;9.30;99.90;;;;;;5058202;28;20202;-44
2021/11/02 16:45:20;;;;;;;3.57;2.40;;;9.20;99.90;;;;;;5060293;28;20222;-44
2021/11/02 16:47:54;;;;;;;6.27;2.57;;;9.20;99.90;;;;;;5058827;28;20221;-43
2021/11/02 16:50:27;;;;;;;4.47;2.90;;;9.10;99.90;;;;;;5058480;28;20210;-43
2021/11/02 16:52:53;;;;;;;6.83;2.87;;;9.10;99.90;;;;;;5059745;28;20214;-44
2021/11/02 16:55:20;;;;;;;4.67;3.40;;;9.10;99.90;;;;;;5048534;28;21054;-47
2021/11/02 16:57:47;;;;;;;6.63;2.73;;;9.00;99.90;;;;;;5052165;28;20190;-42
2021/11/02 17:00:16;;;;;;;4.43;2.80;;;9.00;99.90;;;;;;5059874;28;20222;-44
2021/11/02 17:02:44;;;;;;;5.17;2.80;;;9.00;99.90;;;;;;5047412;28;20746;-44
2021/11/02 17:05:15;;;;;;;5.47;2.77;;;8.90;99.90;;;;;;5060841;28;20245;-44
2021/11/02 17:07:45;;;;;;;6.30;2.77;;;8.90;99.90;;;;;;5040274;28;20211;-43
2021/11/02 17:10:32;;;;;;;5.70;3.10;;;8.90;99.90;;;;;;5048634;28;20257;-44
2021/11/02 17:13:03;;;;;;;7.40;3.40;;;8.80;99.90;;;;;;5047561;28;20211;-42
2021/11/02 17:15:32;;;;;;;4.30;3.73;;;8.70;99.90;;;;;;5053628;28;20219;-43
2021/11/02 17:18:00;;;;;;;8.83;3.63;;;8.70;99.90;;;;;;5058060;28;20195;-45
2021/11/02 17:20:28;;;;;;;4.07;3.63;;;8.60;99.90;;;;;;5052661;28;20202;-45
2021/11/02 17:22:56;;;;;;;11.53;4.90;;;8.60;99.90;;;;;;5056103;28;20211;-45
2021/11/02 17:25:24;;;;;;;8.17;4.60;;;8.50;99.90;;;;;;5050483;28;20223;-44
2021/11/02 17:27:53;;;;;;;6.23;4.60;;;8.40;99.90;;;;;;5039265;28;20219;-44
2021/11/02 17:30:22;;;;;;;5.93;4.40;;;8.40;99.90;;;;;;5060933;28;20191;-43
2021/11/02 17:32:51;;;;;;;7.67;4.13;;;8.40;99.90;;;;;;5067521;28;20189;-44
2021/11/02 17:35:18;;;;;;;4.43;3.97;;;8.30;99.90;;;;;;5061732;28;20301;-45
2021/11/02 17:37:46;;;;;;;7.23;3.90;;;8.30;99.90;;;;;;5059399;28;20303;-44